Time;durP1;ratioP1;P1;durP2;ratioP2;P2;SDS_P1;SDS_P2;PMS_P1;PMS_P2;Temp;Humidity;BMP_temperature;BMP_pressure;BME280_temperature;BME280_humidity;BME280_pressure;Samples;Min_cycle;Max_cycle;Signal;HPM_P1;HPM_P2
2023/04/04 00:04:35;;;;;;;0.70;0.30;;;-1.00;93.40;;;;;;20480851;29;20039;-49
2023/04/04 00:14:37;;;;;;;0.47;0.20;;;-1.10;92.80;;;;;;20434346;29;20040;-53
2023/04/04 00:24:38;;;;;;;0.77;0.20;;;-0.70;90.40;;;;;;20421018;29;20043;-49
2023/04/04 00:34:40;;;;;;;0.20;0.15;;;-0.70;90.90;;;;;;20471712;29;20039;-57
2023/04/04 00:44:41;;;;;;;0.30;0.15;;;-0.70;90.30;;;;;;20423466;29;20091;-50
2023/04/04 00:54:43;;;;;;;0.47;0.20;;;-1.20;92.20;;;;;;20421759;29;20490;-50
2023/04/04 01:04:46;;;;;;;0.35;0.20;;;-1.50;91.40;;;;;;20422325;29;20087;-52
2023/04/04 01:14:47;;;;;;;1.67;0.20;;;-1.70;91.30;;;;;;20421012;29;20394;-46
2023/04/04 01:24:53;;;;;;;0.38;0.20;;;-2.00;92.90;;;;;;20399771;29;20119;-54
2023/04/04 01:35:09;;;;;;;0.30;0.20;;;-2.30;93.60;;;;;;20484227;29;20043;-47
2023/04/04 01:45:11;;;;;;;0.73;0.20;;;-2.50;93.10;;;;;;20423397;29;20042;-49
2023/04/04 01:55:14;;;;;;;0.32;0.20;;;-2.50;94.10;;;;;;20401936;29;20043;-47
2023/04/04 02:05:16;;;;;;;0.20;0.13;;;-2.60;94.30;;;;;;20461676;28;20082;-47
2023/04/04 02:15:18;;;;;;;0.50;0.20;;;-2.80;94.10;;;;;;20417166;29;20072;-49
2023/04/04 02:25:22;;;;;;;1.73;0.20;;;-3.00;95.00;;;;;;20414839;29;20083;-49
2023/04/04 02:35:23;;;;;;;0.57;0.28;;;-3.00;94.50;;;;;;20453877;29;20039;-55
2023/04/04 02:45:25;;;;;;;6.22;0.30;;;-2.90;94.00;;;;;;20415796;29;20076;-55
2023/04/04 02:55:50;;;;;;;1.88;0.22;;;-3.00;94.30;;;;;;20409196;29;20044;-49
2023/04/04 03:05:52;;;;;;;0.45;0.25;;;-3.10;94.40;;;;;;20398823;28;20048;-47
2023/04/04 03:16:03;;;;;;;0.75;0.30;;;-3.30;94.90;;;;;;20417902;29;20044;-51
2023/04/04 03:26:14;;;;;;;0.53;0.30;;;-3.60;95.50;;;;;;20424322;29;20481;-50
2023/04/04 03:36:16;;;;;;;1.08;0.40;;;-2.70;94.90;;;;;;20500570;29;20043;-46
2023/04/04 03:46:21;;;;;;;3.17;0.50;;;-1.90;93.40;;;;;;20410995;29;20063;-51
2023/04/04 03:56:23;;;;;;;1.83;0.50;;;-1.80;93.80;;;;;;20426943;29;20035;-55
2023/04/04 04:06:25;;;;;;;0.88;0.40;;;-2.00;94.70;;;;;;20473241;29;20140;-47
2023/04/04 04:16:27;;;;;;;1.83;0.38;;;-2.00;93.80;;;;;;20408871;29;20035;-48
2023/04/04 04:26:29;;;;;;;0.90;0.35;;;-2.10;93.10;;;;;;20403037;29;20031;-56
2023/04/04 04:36:32;;;;;;;1.00;0.30;;;-2.00;93.00;;;;;;20463070;29;20413;-55
2023/04/04 04:46:49;;;;;;;0.77;0.30;;;-2.00;92.60;;;;;;20407057;29;20067;-51
2023/04/04 04:56:53;;;;;;;3.20;0.50;;;-3.00;95.60;;;;;;20406047;29;20095;-45
2023/04/04 05:06:56;;;;;;;1.33;0.50;;;-3.90;97.70;;;;;;20402652;29;20383;-46
2023/04/04 05:16:58;;;;;;;3.80;0.57;;;-4.20;98.80;;;;;;20446383;29;20047;-46
2023/04/04 05:27:05;;;;;;;1.00;0.50;;;-4.20;99.30;;;;;;20418044;29;20556;-50
2023/04/04 05:37:13;;;;;;;1.02;0.40;;;-4.20;99.10;;;;;;20467309;29;20083;-45
2023/04/04 05:47:17;;;;;;;1.42;0.40;;;-3.90;98.30;;;;;;20494126;29;20102;-45
2023/04/04 05:57:21;;;;;;;0.80;0.40;;;-3.10;96.70;;;;;;20433550;29;20358;-49
2023/04/04 06:07:27;;;;;;;4.65;0.45;;;-2.90;96.40;;;;;;20395919;29;20102;-46
2023/04/04 06:17:29;;;;;;;0.90;0.40;;;-3.10;97.20;;;;;;20363733;29;20036;-47
2023/04/04 06:27:31;;;;;;;0.93;0.40;;;-2.90;96.70;;;;;;20398014;29;20044;-49
2023/04/04 06:37:34;;;;;;;1.27;0.43;;;-2.80;96.30;;;;;;20407478;29;20059;-47
2023/04/04 06:47:45;;;;;;;1.20;0.40;;;-2.40;96.50;;;;;;20460801;29;20046;-46
2023/04/04 06:57:47;;;;;;;0.93;0.40;;;-1.00;94.90;;;;;;20470019;28;20048;-47
2023/04/04 07:07:53;;;;;;;0.82;0.50;;;0.60;93.90;;;;;;20461603;29;20095;-50
2023/04/04 07:17:55;;;;;;;2.95;0.47;;;1.50;92.40;;;;;;20430602;29;20083;-49
2023/04/04 07:27:57;;;;;;;1.40;0.63;;;2.50;92.70;;;;;;20434374;29;20091;-59
2023/04/04 07:37:58;;;;;;;3.50;0.52;;;3.10;92.30;;;;;;20462549;29;20035;-47
2023/04/04 07:48:00;;;;;;;3.17;0.80;;;3.40;90.10;;;;;;20428074;29;20095;-52
2023/04/04 07:58:02;;;;;;;1.50;0.55;;;4.10;90.60;;;;;;20447426;29;20039;-48
2023/04/04 08:08:03;;;;;;;1.58;0.70;;;4.50;88.40;;;;;;20467849;28;20492;-50
2023/04/04 08:18:06;;;;;;;3.63;0.80;;;5.20;86.40;;;;;;20506622;29;20038;-46
2023/04/04 08:28:07;;;;;;;1.88;1.50;;;5.10;86.20;;;;;;20436663;29;20039;-48
2023/04/04 08:38:09;;;;;;;7.80;2.08;;;5.50;93.00;;;;;;20424277;29;20035;-50
2023/04/04 08:48:13;;;;;;;5.78;1.75;;;6.10;93.60;;;;;;20423478;29;20078;-48
2023/04/04 08:58:16;;;;;;;2.97;1.60;;;6.10;92.10;;;;;;20434720;29;20559;-51
2023/04/04 09:08:17;;;;;;;4.57;1.30;;;6.60;90.40;;;;;;20458829;29;20529;-49
2023/04/04 09:18:19;;;;;;;2.17;1.40;;;6.70;91.00;;;;;;20426117;28;20040;-51
2023/04/04 09:28:22;;;;;;;2.97;1.50;;;6.80;91.80;;;;;;20425666;29;20039;-51
2023/04/04 09:38:26;;;;;;;4.63;1.58;;;6.10;91.10;;;;;;20419566;29;20359;-47
2023/04/04 09:48:33;;;;;;;5.28;1.60;;;6.00;91.90;;;;;;20349159;29;20036;-47
2023/04/04 09:58:37;;;;;;;1.98;1.40;;;6.70;90.80;;;;;;20361346;29;20035;-46
2023/04/04 10:08:42;;;;;;;2.85;1.42;;;7.40;91.10;;;;;;20474868;29;20044;-48
2023/04/04 10:18:45;;;;;;;5.25;2.03;;;7.50;91.00;;;;;;20418200;29;20027;-58
2023/04/04 10:28:47;;;;;;;4.43;1.95;;;7.70;91.30;;;;;;20428010;29;20102;-58
2023/04/04 10:39:13;;;;;;;2.58;1.80;;;7.90;90.40;;;;;;20488832;29;20028;-58
2023/04/04 10:49:15;;;;;;;3.22;1.80;;;8.00;86.80;;;;;;20433554;29;20035;-59
2023/04/04 10:59:17;;;;;;;2.88;2.05;;;8.00;90.60;;;;;;20431719;29;20051;-50
2023/04/04 11:09:47;;;;;;;3.60;2.15;;;8.30;89.60;;;;;;20454792;29;20051;-58
2023/04/04 11:19:58;;;;;;;4.18;1.75;;;8.30;91.00;;;;;;20475996;29;20035;-58
2023/04/04 11:30:13;;;;;;;3.40;2.00;;;8.50;87.00;;;;;;20435769;29;20493;-57
2023/04/04 11:40:15;;;;;;;5.75;2.22;;;8.70;90.10;;;;;;20427562;29;20102;-48
2023/04/04 11:50:18;;;;;;;4.18;2.08;;;8.50;88.50;;;;;;20410976;29;20068;-59
2023/04/04 12:00:36;;;;;;;3.88;1.80;;;8.60;90.80;;;;;;20415053;29;20065;-51
2023/04/04 12:10:39;;;;;;;7.72;2.80;;;8.90;87.70;;;;;;20445535;29;20048;-59
2023/04/04 12:20:47;;;;;;;4.30;2.33;;;8.50;86.20;;;;;;20442340;29;20489;-59
2023/04/04 12:30:49;;;;;;;3.25;2.17;;;8.90;88.00;;;;;;20424687;29;20035;-48
2023/04/04 12:40:51;;;;;;;4.97;2.47;;;8.90;90.10;;;;;;20425530;29;20102;-48
2023/04/04 12:50:55;;;;;;;3.63;2.63;;;8.80;86.90;;;;;;20423230;29;20031;-50
2023/04/04 13:01:00;;;;;;;8.75;3.10;;;8.90;87.10;;;;;;20448353;29;20086;-48
2023/04/04 13:11:04;;;;;;;5.43;2.80;;;8.80;83.70;;;;;;20375351;29;20056;-50
2023/04/04 13:21:16;;;;;;;5.60;2.87;;;8.30;88.00;;;;;;20974620;28;20512;-60
2023/04/04 13:31:18;;;;;;;8.10;3.38;;;8.40;87.30;;;;;;20958916;28;20029;-60
2023/04/04 13:41:20;;;;;;;4.30;2.90;;;8.80;90.50;;;;;;20939610;28;20032;-60
2023/04/04 13:51:23;;;;;;;4.60;3.30;;;9.30;84.10;;;;;;20972030;28;20036;-47
2023/04/04 14:01:25;;;;;;;4.47;3.22;;;8.90;87.30;;;;;;20971528;28;20083;-47
2023/04/04 14:11:29;;;;;;;7.20;3.47;;;8.90;87.50;;;;;;20969869;28;20060;-60
2023/04/04 14:21:31;;;;;;;5.18;3.25;;;8.90;88.70;;;;;;20969596;28;20036;-49
2023/04/04 14:31:33;;;;;;;4.35;3.30;;;8.50;86.40;;;;;;20919983;28;20074;-60
2023/04/04 14:41:35;;;;;;;5.40;4.00;;;8.20;86.90;;;;;;20913397;28;20531;-59
2023/04/04 14:51:37;;;;;;;7.28;3.72;;;7.90;87.10;;;;;;20912699;28;20033;-58
2023/04/04 15:01:38;;;;;;;5.32;3.33;;;7.60;86.50;;;;;;20910312;28;20459;-50
2023/04/04 15:11:40;;;;;;;4.82;3.40;;;6.80;86.90;;;;;;20909539;28;20041;-59
2023/04/04 15:21:42;;;;;;;6.07;3.90;;;6.20;88.00;;;;;;20909984;28;20033;-47
2023/04/04 15:31:43;;;;;;;8.70;3.50;;;5.50;89.50;;;;;;20907123;28;20040;-57
2023/04/04 15:41:45;;;;;;;6.55;4.03;;;4.90;90.40;;;;;;20906236;28;20036;-58
2023/04/04 15:51:46;;;;;;;8.98;4.45;;;4.40;91.10;;;;;;20907646;28;20028;-48
2023/04/04 16:01:48;;;;;;;5.20;3.65;;;3.90;91.50;;;;;;20907448;28;20036;-57
2023/04/04 16:11:50;;;;;;;6.63;4.30;;;3.40;91.40;;;;;;20905857;28;20079;-51
2023/04/04 16:21:52;;;;;;;6.40;3.83;;;2.80;92.20;;;;;;20905681;28;20335;-49
2023/04/04 16:31:53;;;;;;;9.68;4.30;;;2.10;93.10;;;;;;20902732;28;20037;-52
2023/04/04 16:41:56;;;;;;;9.70;4.15;;;1.50;94.20;;;;;;20904034;28;20033;-48
2023/04/04 16:51:58;;;;;;;7.75;4.18;;;1.20;95.30;;;;;;20903165;28;20059;-50
2023/04/04 17:01:59;;;;;;;9.13;3.92;;;0.80;95.60;;;;;;20903453;28;20037;-58
2023/04/04 17:12:02;;;;;;;6.72;3.72;;;0.50;96.40;;;;;;20901989;28;20057;-57
2023/04/04 17:22:03;;;;;;;6.85;4.13;;;0.20;97.20;;;;;;20902141;28;20040;-48
2023/04/04 17:32:05;;;;;;;8.95;4.18;;;-0.10;98.00;;;;;;20897562;28;20087;-48
2023/04/04 17:42:07;;;;;;;7.55;4.20;;;-0.40;98.00;;;;;;20901201;28;20037;-57
2023/04/04 17:52:09;;;;;;;11.93;5.13;;;-0.50;98.10;;;;;;20902348;28;20386;-57
2023/04/04 18:02:10;;;;;;;9.43;5.30;;;-0.70;98.90;;;;;;20915494;28;20043;-49
2023/04/04 18:12:12;;;;;;;8.65;4.88;;;-1.10;99.90;;;;;;20942018;28;20037;-50
2023/04/04 18:22:14;;;;;;;7.72;4.95;;;-1.50;99.90;;;;;;20913723;28;20094;-50
2023/04/04 18:32:17;;;;;;;9.77;5.32;;;-1.70;99.90;;;;;;20914612;28;20447;-49
2023/04/04 18:42:18;;;;;;;8.85;4.68;;;-1.90;99.90;;;;;;20911591;28;20028;-46
2023/04/04 18:52:20;;;;;;;11.18;5.15;;;-2.00;99.90;;;;;;20881398;28;20294;-48
2023/04/04 19:02:21;;;;;;;11.85;5.78;;;-2.00;99.90;;;;;;20912124;28;20033;-50
2023/04/04 19:12:23;;;;;;;10.38;5.00;;;-2.00;99.90;;;;;;20910609;28;20045;-50
2023/04/04 19:22:25;;;;;;;12.82;5.47;;;-2.10;99.90;;;;;;20910290;28;20033;-50
2023/04/04 19:32:27;;;;;;;10.05;5.35;;;-2.30;99.90;;;;;;20909963;28;20114;-49
2023/04/04 19:42:29;;;;;;;13.02;5.82;;;-2.60;99.90;;;;;;20908895;28;20040;-47
2023/04/04 19:52:31;;;;;;;12.68;6.03;;;-2.60;99.90;;;;;;20908138;28;20036;-49
2023/04/04 20:02:32;;;;;;;9.80;6.13;;;-2.70;99.90;;;;;;20907864;28;20031;-46
2023/04/04 20:12:34;;;;;;;8.82;5.15;;;-2.60;99.90;;;;;;20885204;28;20041;-54
2023/04/04 20:22:35;;;;;;;9.82;5.95;;;-2.80;99.90;;;;;;20905499;28;20037;-49
2023/04/04 20:32:37;;;;;;;12.98;6.70;;;-2.90;99.90;;;;;;20897404;28;20041;-47
2023/04/04 20:42:39;;;;;;;13.50;6.45;;;-3.10;99.90;;;;;;20878760;28;20031;-55
2023/04/04 20:52:41;;;;;;;16.02;5.40;;;-3.20;99.90;;;;;;20903805;28;20037;-54
2023/04/04 21:02:43;;;;;;;12.05;6.25;;;-3.30;99.90;;;;;;20903526;28;20095;-52
2023/04/04 21:12:44;;;;;;;9.63;5.32;;;-3.30;99.90;;;;;;20902212;28;20056;-51
2023/04/04 21:22:48;;;;;;;12.77;6.03;;;-3.40;99.90;;;;;;20902082;28;20432;-50
2023/04/04 21:32:50;;;;;;;11.75;6.18;;;-3.50;99.90;;;;;;20902026;28;20029;-49
2023/04/04 21:42:51;;;;;;;13.27;6.10;;;-3.60;99.90;;;;;;20917493;28;20040;-49
2023/04/04 21:52:53;;;;;;;14.05;6.18;;;-3.60;99.90;;;;;;20917492;28;20029;-51
2023/04/04 22:02:54;;;;;;;10.88;5.30;;;-3.60;99.90;;;;;;20917135;28;20119;-54
2023/04/04 22:12:58;;;;;;;13.23;5.93;;;-3.70;99.90;;;;;;20914343;28;20033;-49
2023/04/04 22:23:04;;;;;;;14.13;6.10;;;-3.70;99.90;;;;;;20915334;28;20037;-47
2023/04/04 22:33:06;;;;;;;13.57;6.03;;;-3.80;99.90;;;;;;20916159;28;20462;-54
2023/04/04 22:43:08;;;;;;;12.90;6.38;;;-3.90;99.90;;;;;;20913907;28;20033;-49
2023/04/04 22:53:11;;;;;;;8.60;5.40;;;-3.70;99.90;;;;;;20912864;28;20536;-48
2023/04/04 23:03:13;;;;;;;9.98;6.13;;;-3.40;99.90;;;;;;20912764;28;20531;-54
2023/04/04 23:13:15;;;;;;;13.65;6.57;;;-3.20;99.90;;;;;;20910097;28;20045;-54
2023/04/04 23:23:16;;;;;;;14.88;5.55;;;-3.10;99.90;;;;;;20910830;28;20029;-48
2023/04/04 23:33:18;;;;;;;8.77;4.22;;;-2.90;99.90;;;;;;20910314;28;20096;-47
2023/04/04 23:43:20;;;;;;;9.30;5.05;;;-2.70;99.90;;;;;;20909225;28;20037;-49
2023/04/04 23:53:22;;;;;;;9.63;4.50;;;-2.70;99.90;;;;;;20909354;28;20063;-46
